Terminal Aerodrome Forecast
Issued by NWS Blacksburg, VA

Current Version | Previous Version | Graphics & Text | Print | Product List | Glossary On
Versions: 1 2 3 4 5 6 7 8 9 10 11 12 13 14 15 16 17 18 19 20 21 22 23 24 25 26 27 28 29 30 31 32 33 34
000
FTUS41 KRNK 220533
TAFBLF
TAF
KBLF 220533Z 2206/2306 23005KT P6SM BKN250
     FM221700 23004KT P6SM BKN070
     FM222200 23006KT P6SM OVC030
     FM230100 19006KT P6SM OVC015
     FM230300 16006KT 4SM -SHRA OVC010=

USA.gov is the U.S. government's official web portal to all federal, state and local government web resources and services.